createdAt,value
2018-03-16T00:00:50.785Z,35.33
2018-03-16T00:02:54.317Z,32.83
2018-03-16T00:04:57.880Z,34.87
2018-03-16T00:07:01.570Z,36.40
2018-03-16T00:09:05.904Z,30.47
2018-03-16T00:11:09.456Z,31.57
2018-03-16T00:13:13.016Z,33.93
2018-03-16T00:15:16.609Z,31.97
2018-03-16T00:17:20.107Z,31.77
2018-03-16T00:19:26.256Z,35.30
2018-03-16T00:21:32.646Z,35.97
2018-03-16T00:23:38.090Z,33.63
2018-03-16T00:25:41.632Z,32.37
2018-03-16T00:27:45.229Z,33.37
2018-03-16T00:29:49.497Z,30.90
2018-03-16T00:31:53.315Z,33.50
2018-03-16T00:33:58.595Z,31.60
2018-03-16T00:36:02.885Z,31.00
2018-03-16T00:38:07.174Z,29.63
2018-03-16T00:40:12.178Z,31.80
2018-03-16T00:42:15.710Z,30.00
2018-03-16T00:44:21.431Z,30.40
2018-03-16T00:46:28.029Z,31.57
2018-03-16T00:48:32.038Z,32.13
2018-03-16T00:50:35.608Z,34.30
2018-03-16T00:52:39.202Z,33.10
2018-03-16T00:54:42.743Z,31.93
2018-03-16T00:56:47.012Z,32.53
2018-03-16T00:58:52.904Z,34.23
2018-03-16T01:00:57.002Z,32.40
2018-03-16T01:03:01.364Z,33.57
2018-03-16T01:05:05.819Z,32.88
2018-03-16T01:07:09.377Z,33.17
2018-03-16T01:09:12.945Z,31.57
2018-03-16T01:11:17.216Z,33.63
2018-03-16T01:13:20.738Z,37.63
2018-03-16T01:15:25.108Z,32.93
2018-03-16T01:17:28.631Z,31.37
2018-03-16T01:19:32.220Z,32.70
2018-03-16T01:21:35.796Z,34.07
2018-03-16T01:23:39.315Z,34.53
2018-03-16T01:25:42.846Z,36.03
2018-03-16T01:27:46.413Z,34.37
2018-03-16T01:29:50.010Z,32.40
2018-03-16T01:31:53.586Z,31.87
2018-03-16T01:33:57.075Z,29.23
2018-03-16T01:36:00.629Z,34.53
2018-03-16T01:38:04.209Z,29.20
2018-03-16T01:40:08.556Z,38.20
2018-03-16T01:42:12.095Z,31.33
2018-03-16T01:44:15.591Z,36.83
2018-03-16T01:46:19.127Z,36.23
2018-03-16T01:48:22.746Z,31.00
2018-03-16T01:50:26.379Z,35.23
2018-03-16T01:52:29.987Z,34.20
2018-03-16T01:54:34.340Z,33.40
2018-03-16T01:56:37.884Z,39.13
2018-03-16T01:58:41.389Z,35.83
2018-03-16T02:00:45.723Z,37.40
2018-03-16T02:02:49.342Z,36.50
2018-03-16T02:04:52.843Z,34.73
2018-03-16T02:06:56.353Z,36.70
2018-03-16T02:08:59.901Z,39.23
2018-03-16T02:11:03.402Z,34.23
2018-03-16T02:13:07.739Z,39.70
2018-03-16T02:15:11.267Z,37.07
2018-03-16T02:17:14.835Z,38.97
2018-03-16T02:19:18.439Z,34.37
2018-03-16T02:21:21.951Z,40.70
2018-03-16T02:23:25.544Z,40.83
2018-03-16T02:25:29.099Z,41.33
2018-03-16T02:27:32.662Z,37.17
2018-03-16T02:29:36.199Z,33.47
2018-03-16T02:31:39.785Z,39.77
2018-03-16T02:33:43.341Z,41.27
2018-03-16T02:35:46.926Z,42.27
2018-03-16T02:37:50.446Z,41.53
2018-03-16T02:39:54.785Z,43.03
2018-03-16T02:41:58.354Z,36.33
2018-03-16T02:44:01.887Z,43.90
2018-03-16T02:46:13.558Z,44.93
2018-03-16T02:48:18.768Z,44.57
2018-03-16T02:50:23.137Z,44.53
2018-03-16T02:52:26.707Z,41.87
2018-03-16T02:54:30.970Z,42.53
2018-03-16T02:56:34.574Z,43.70
2018-03-16T02:58:38.089Z,44.90
2018-03-16T03:00:41.674Z,44.57
2018-03-16T03:02:45.278Z,46.73
2018-03-16T03:04:49.582Z,41.20
2018-03-16T03:06:53.910Z,43.60
2018-03-16T03:08:57.458Z,41.93
2018-03-16T03:11:01.029Z,47.33
2018-03-16T03:13:04.581Z,50.10
2018-03-16T03:15:08.163Z,43.70
2018-03-16T03:17:11.751Z,41.63
2018-03-16T03:19:15.295Z,47.80
2018-03-16T03:21:19.574Z,44.50
2018-03-16T03:23:23.138Z,45.20
2018-03-16T03:25:26.729Z,43.63
2018-03-16T03:27:30.248Z,43.37
2018-03-16T03:29:33.761Z,47.60
2018-03-16T03:31:37.357Z,45.03
2018-03-16T03:33:40.890Z,45.60
2018-03-16T03:35:45.209Z,47.23
2018-03-16T03:37:48.778Z,46.57
2018-03-16T03:39:52.332Z,44.50
2018-03-16T03:41:55.935Z,45.33
2018-03-16T03:43:59.507Z,45.27
2018-03-16T03:46:03.005Z,50.23
2018-03-16T03:48:06.612Z,45.27
2018-03-16T03:50:10.137Z,48.90
2018-03-16T03:52:13.662Z,46.10
2018-03-16T03:54:17.247Z,46.37
2018-03-16T03:56:21.524Z,43.90
2018-03-16T03:58:26.547Z,44.37
2018-03-16T04:00:30.102Z,48.00
2018-03-16T04:02:34.431Z,44.03
2018-03-16T04:04:38.023Z,46.63
2018-03-16T04:06:41.592Z,45.17
2018-03-16T04:08:45.924Z,48.57
2018-03-16T04:10:50.287Z,50.50
2018-03-16T04:12:53.818Z,47.33
2018-03-16T04:14:57.411Z,44.07
2018-03-16T04:17:00.934Z,45.90
2018-03-16T04:19:04.543Z,40.90
2018-03-16T04:21:08.154Z,43.30
2018-03-16T04:23:11.649Z,46.17
2018-03-16T04:25:15.150Z,42.30
2018-03-16T04:27:18.766Z,46.73
2018-03-16T04:29:22.273Z,46.67
2018-03-16T04:31:25.777Z,46.03
2018-03-16T04:33:30.140Z,45.37
2018-03-16T04:35:34.431Z,44.37
2018-03-16T04:37:37.995Z,44.90
2018-03-16T04:39:41.523Z,46.77
2018-03-16T04:41:45.075Z,43.53
2018-03-16T04:43:48.616Z,41.63
2018-03-16T04:45:52.124Z,42.07
2018-03-16T04:47:55.674Z,46.40
2018-03-16T04:49:59.180Z,46.30
2018-03-16T04:52:02.741Z,43.93
2018-03-16T04:54:06.307Z,40.73
2018-03-16T04:56:09.866Z,44.90
2018-03-16T04:58:14.194Z,48.37
2018-03-16T05:00:18.494Z,43.90
2018-03-16T05:02:22.009Z,44.80
2018-03-16T05:04:25.562Z,48.13
2018-03-16T05:06:29.102Z,44.80
2018-03-16T05:08:32.635Z,45.90
2018-03-16T05:10:36.189Z,49.67
2018-03-16T05:12:39.719Z,46.67
2018-03-16T05:14:43.321Z,45.63
2018-03-16T05:16:46.916Z,45.43
2018-03-16T05:18:50.455Z,44.23
2018-03-16T05:20:54.746Z,42.07
2018-03-16T05:22:59.108Z,44.80
2018-03-16T05:25:02.622Z,45.77
2018-03-16T05:27:06.231Z,43.40
2018-03-16T05:29:09.755Z,41.83
2018-03-16T05:31:13.284Z,36.90
2018-03-16T05:33:16.852Z,41.47
2018-03-16T05:35:21.136Z,42.77
2018-03-16T05:37:24.617Z,41.10
2018-03-16T05:39:28.202Z,44.13
2018-03-16T05:41:31.748Z,43.43
2018-03-16T05:43:35.411Z,37.53
2018-03-16T05:45:38.977Z,39.23
2018-03-16T05:47:42.571Z,43.50
2018-03-16T05:49:46.381Z,38.67
2018-03-16T05:51:50.742Z,41.93
2018-03-16T05:53:54.280Z,39.87
2018-03-16T05:55:57.880Z,40.53
2018-03-16T05:58:01.433Z,39.77
2018-03-16T06:00:05.873Z,39.57
2018-03-16T06:02:09.432Z,39.83
2018-03-16T06:04:12.937Z,40.33
2018-03-16T06:06:16.474Z,40.63
2018-03-16T06:08:20.042Z,38.10
2018-03-16T06:10:24.376Z,35.77
2018-03-16T06:12:27.902Z,36.77
2018-03-16T06:14:31.486Z,44.00
2018-03-16T06:16:34.979Z,37.10
2018-03-16T06:18:38.511Z,39.33
2018-03-16T06:20:42.059Z,34.47
2018-03-16T06:22:45.581Z,37.50
2018-03-16T06:24:49.137Z,36.80
2018-03-16T06:26:53.578Z,39.70
2018-03-16T06:28:57.166Z,37.03
2018-03-16T06:31:00.665Z,37.63
2018-03-16T06:33:04.256Z,37.47
2018-03-16T06:35:07.802Z,41.17
2018-03-16T06:37:11.345Z,41.47
2018-03-16T06:39:14.910Z,41.17
2018-03-16T06:41:19.259Z,34.43
2018-03-16T06:43:22.846Z,41.10
2018-03-16T06:45:26.381Z,33.90
2018-03-16T06:47:30.005Z,37.13
2018-03-16T06:49:33.603Z,36.23
2018-03-16T06:51:37.927Z,31.77
2018-03-16T06:53:42.217Z,34.07
2018-03-16T06:55:45.742Z,38.57
2018-03-16T06:57:50.049Z,42.87
2018-03-16T06:59:53.566Z,41.53
2018-03-16T07:01:57.879Z,41.97
2018-03-16T07:04:01.455Z,37.43
2018-03-16T07:06:05.075Z,38.33
2018-03-16T07:08:08.605Z,40.17
2018-03-16T07:10:12.189Z,42.50
2018-03-16T07:12:15.767Z,37.33
2018-03-16T07:14:19.309Z,37.40
2018-03-16T07:16:23.069Z,38.27
2018-03-16T07:18:26.658Z,38.77
2018-03-16T07:20:30.311Z,37.03
2018-03-16T07:22:33.908Z,35.07
2018-03-16T07:24:38.315Z,40.70
2018-03-16T07:26:41.883Z,33.40
2018-03-16T07:28:45.409Z,38.23
2018-03-16T07:30:49.008Z,30.67
2018-03-16T07:32:52.531Z,32.23
2018-03-16T07:34:56.841Z,35.87
2018-03-16T07:37:01.172Z,35.00
2018-03-16T07:39:04.782Z,31.03
2018-03-16T07:41:08.438Z,28.90
2018-03-16T07:43:12.747Z,36.00
2018-03-16T07:45:16.970Z,32.40
2018-03-16T07:47:20.559Z,24.40
2018-03-16T07:49:24.099Z,32.40
2018-03-16T07:51:27.698Z,33.57
2018-03-16T07:53:31.280Z,32.60
2018-03-16T07:55:35.565Z,27.90
2018-03-16T07:57:39.208Z,31.57
2018-03-16T07:59:42.762Z,33.00
2018-03-16T08:01:47.071Z,32.93
2018-03-16T08:03:51.426Z,28.27
2018-03-16T08:05:54.950Z,32.13
2018-03-16T08:07:59.696Z,29.80
2018-03-16T08:10:03.280Z,30.90
2018-03-16T08:12:06.911Z,27.00
2018-03-16T08:14:10.534Z,26.97
2018-03-16T08:16:14.086Z,26.73
2018-03-16T08:18:17.638Z,29.30
2018-03-16T08:20:21.215Z,28.87
2018-03-16T08:22:24.775Z,27.03
2018-03-16T08:24:29.084Z,26.17
2018-03-16T08:26:33.269Z,28.83
2018-03-16T08:28:44.155Z,27.67
2018-03-16T08:30:58.034Z,26.67
2018-03-16T08:33:08.774Z,26.27
2018-03-16T08:35:21.252Z,22.67
2018-03-16T08:37:34.535Z,24.63
2018-03-16T08:39:48.212Z,24.20
2018-03-16T08:42:00.662Z,26.67
2018-03-16T08:44:14.204Z,25.30
2018-03-16T08:46:20.368Z,26.10
2018-03-16T08:48:25.365Z,22.60
2018-03-16T08:50:29.687Z,27.67
2018-03-16T08:52:33.250Z,25.30
2018-03-16T08:54:37.622Z,23.17
2018-03-16T08:56:41.859Z,26.00
2018-03-16T08:58:45.450Z,24.13
2018-03-16T09:00:48.975Z,25.63
2018-03-16T09:02:52.536Z,24.23
2018-03-16T09:04:56.108Z,25.97
2018-03-16T09:06:59.715Z,26.37
2018-03-16T09:09:03.356Z,21.90
2018-03-16T09:11:07.726Z,23.47
2018-03-16T09:13:11.239Z,22.17
2018-03-16T09:15:14.810Z,24.33
2018-03-16T09:17:18.306Z,26.03
2018-03-16T09:19:21.817Z,25.57
2018-03-16T09:21:25.363Z,23.13
2018-03-16T09:23:29.664Z,21.83
2018-03-16T09:25:33.294Z,24.27
2018-03-16T09:27:36.775Z,25.37
2018-03-16T09:29:40.348Z,22.33
2018-03-16T09:31:43.886Z,26.73
2018-03-16T09:33:47.649Z,23.13
2018-03-16T09:35:51.192Z,24.50
2018-03-16T09:37:54.759Z,24.50
2018-03-16T09:39:58.319Z,26.47
2018-03-16T09:42:01.955Z,24.77
2018-03-16T09:44:05.573Z,23.83
2018-03-16T09:46:09.114Z,23.03
2018-03-16T09:48:12.646Z,24.63
2018-03-16T09:50:16.970Z,26.60
2018-03-16T09:52:20.526Z,22.80
2018-03-16T09:54:24.862Z,24.33
2018-03-16T09:56:28.429Z,22.30
2018-03-16T09:58:31.985Z,26.63
2018-03-16T10:00:35.508Z,22.23
2018-03-16T10:02:39.096Z,23.80
2018-03-16T10:04:42.700Z,22.63
2018-03-16T10:06:46.220Z,22.87
2018-03-16T10:08:50.608Z,24.63
2018-03-16T10:10:54.131Z,20.83
2018-03-16T10:12:57.622Z,20.90
2018-03-16T10:15:01.195Z,20.77
2018-03-16T10:17:04.797Z,20.30
2018-03-16T10:19:08.310Z,19.50
2018-03-16T10:21:11.883Z,22.63
2018-03-16T10:23:15.428Z,19.23
2018-03-16T10:25:18.996Z,17.90
2018-03-16T10:27:22.641Z,22.43
2018-03-16T10:29:26.169Z,22.20
2018-03-16T10:31:29.689Z,21.97
2018-03-16T10:33:34.010Z,22.07
2018-03-16T10:35:37.583Z,18.73
2018-03-16T10:37:41.097Z,21.03
2018-03-16T10:39:44.685Z,21.23
2018-03-16T10:41:49.034Z,25.03
2018-03-16T10:43:52.579Z,20.30
2018-03-16T10:45:56.206Z,15.73
2018-03-16T10:48:00.533Z,20.93
2018-03-16T10:50:05.766Z,22.13
2018-03-16T10:52:09.321Z,22.47
2018-03-16T10:54:12.849Z,18.53
2018-03-16T10:56:16.470Z,20.07
2018-03-16T10:58:20.050Z,19.70
2018-03-16T11:00:29.887Z,18.23
2018-03-16T11:02:39.793Z,17.30
2018-03-16T11:04:43.367Z,18.57
2018-03-16T11:06:46.970Z,15.67
2018-03-16T11:08:50.579Z,14.97
2018-03-16T11:10:54.130Z,15.00
2018-03-16T11:12:57.685Z,17.10
2018-03-16T11:15:01.246Z,16.23
2018-03-16T11:17:04.868Z,15.80
2018-03-16T11:19:08.479Z,16.30
2018-03-16T11:21:12.058Z,15.03
2018-03-16T11:23:15.621Z,13.57
2018-03-16T11:25:19.215Z,15.17
2018-03-16T11:27:22.775Z,14.80
2018-03-16T11:29:27.148Z,15.97
2018-03-16T11:31:30.711Z,12.40
2018-03-16T11:33:35.018Z,13.37
2018-03-16T11:35:38.642Z,12.37
2018-03-16T11:37:42.201Z,14.53
2018-03-16T11:39:45.710Z,13.43
2018-03-16T11:41:49.297Z,15.13
2018-03-16T11:43:52.791Z,12.80
2018-03-16T11:45:57.135Z,12.43
2018-03-16T11:48:00.708Z,12.50
2018-03-16T11:50:04.369Z,11.57
2018-03-16T11:52:07.902Z,14.93
2018-03-16T11:54:12.174Z,12.80
2018-03-16T11:56:16.554Z,12.43
2018-03-16T11:58:20.039Z,13.43
2018-03-16T12:00:23.561Z,13.10
2018-03-16T12:02:27.121Z,12.13
2018-03-16T12:04:30.664Z,12.43
2018-03-16T12:06:34.167Z,12.47
2018-03-16T12:08:37.711Z,9.47
2018-03-16T12:10:41.213Z,13.83
2018-03-16T12:12:44.700Z,14.23
2018-03-16T12:14:48.294Z,13.47
2018-03-16T12:16:51.896Z,12.77
2018-03-16T12:18:55.414Z,12.00
2018-03-16T12:20:58.992Z,10.87
2018-03-16T12:23:02.550Z,11.47
2018-03-16T12:25:06.130Z,10.70
2018-03-16T12:27:09.624Z,10.77
2018-03-16T12:29:13.194Z,10.10
2018-03-16T12:31:16.705Z,10.23
2018-03-16T12:33:20.313Z,8.97
2018-03-16T12:35:23.910Z,11.20
2018-03-16T12:37:27.438Z,10.77
2018-03-16T12:39:31.046Z,10.40
2018-03-16T12:41:34.603Z,8.73
2018-03-16T12:43:38.427Z,9.87
2018-03-16T12:45:41.985Z,11.53
2018-03-16T12:47:45.555Z,10.53
2018-03-16T12:49:49.135Z,10.53
2018-03-16T12:51:53.447Z,9.67
2018-03-16T12:53:57.028Z,10.03
2018-03-16T12:56:01.326Z,12.10
2018-03-16T12:58:05.685Z,13.93
2018-03-16T13:00:10.007Z,10.10
2018-03-16T13:02:13.574Z,11.77
2018-03-16T13:04:17.136Z,8.27
2018-03-16T13:06:20.675Z,11.67
2018-03-16T13:08:24.240Z,9.27
2018-03-16T13:10:28.613Z,9.57
2018-03-16T13:12:32.164Z,10.77
2018-03-16T13:14:35.701Z,11.90
2018-03-16T13:16:39.340Z,10.37
2018-03-16T13:18:42.830Z,11.80
2018-03-16T13:20:46.367Z,8.37
2018-03-16T13:22:49.947Z,11.80
2018-03-16T13:24:54.289Z,9.70
2018-03-16T13:26:57.834Z,9.37
2018-03-16T13:29:01.414Z,9.03
2018-03-16T13:31:04.971Z,8.67
2018-03-16T13:33:08.573Z,9.83
2018-03-16T13:35:12.118Z,10.83
2018-03-16T13:37:15.637Z,7.93
2018-03-16T13:39:19.997Z,9.30
2018-03-16T13:41:23.523Z,8.60
2018-03-16T13:43:41.698Z,11.13
2018-03-16T13:45:45.286Z,10.47
2018-03-16T13:47:48.927Z,9.63
2018-03-16T13:49:52.530Z,10.17
2018-03-16T13:51:56.054Z,9.93
2018-03-16T13:53:59.554Z,9.63
2018-03-16T13:56:03.910Z,9.53
2018-03-16T13:58:07.436Z,8.77
2018-03-16T14:00:10.997Z,7.13
2018-03-16T14:02:14.597Z,5.97
2018-03-16T14:04:18.126Z,10.60
2018-03-16T14:06:22.453Z,7.50
2018-03-16T14:08:26.811Z,8.33
2018-03-16T14:10:30.299Z,9.13
2018-03-16T14:12:33.835Z,7.97
2018-03-16T14:14:37.402Z,9.23
2018-03-16T14:16:40.991Z,11.93
2018-03-16T14:18:44.524Z,11.87
2018-03-16T14:20:48.888Z,7.93
2018-03-16T14:22:52.468Z,10.20
2018-03-16T14:24:58.481Z,7.60
2018-03-16T14:27:02.707Z,6.90
2018-03-16T14:29:06.280Z,7.57
2018-03-16T14:31:09.887Z,8.40
2018-03-16T14:33:13.784Z,7.53
2018-03-16T14:35:17.330Z,7.60
2018-03-16T14:37:21.626Z,9.57
2018-03-16T14:39:25.208Z,8.93
2018-03-16T14:41:29.475Z,8.40
2018-03-16T14:43:32.984Z,5.50
2018-03-16T14:45:36.573Z,6.97
2018-03-16T14:47:40.106Z,7.60
2018-03-16T14:49:43.647Z,9.53
2018-03-16T14:51:47.246Z,7.60
2018-03-16T14:53:50.803Z,12.00
2018-03-16T14:55:54.319Z,9.37
2018-03-16T14:57:58.627Z,7.47
2018-03-16T15:00:02.971Z,7.63
2018-03-16T15:02:06.667Z,10.27
2018-03-16T15:04:10.236Z,6.83
2018-03-16T15:06:14.506Z,7.60
2018-03-16T15:08:18.899Z,5.97
2018-03-16T15:10:22.485Z,7.27
2018-03-16T15:12:26.036Z,7.60
2018-03-16T15:14:29.536Z,7.90
2018-03-16T15:16:33.107Z,6.73
2018-03-16T15:18:36.640Z,6.63
2018-03-16T15:20:40.141Z,6.93
2018-03-16T15:22:44.462Z,7.23
2018-03-16T15:24:48.785Z,4.60
2018-03-16T15:26:52.295Z,4.37
2018-03-16T15:28:55.881Z,5.80
2018-03-16T15:30:59.441Z,5.77
2018-03-16T15:33:02.935Z,6.13
2018-03-16T15:35:06.553Z,3.70
2018-03-16T15:37:10.819Z,5.50
2018-03-16T15:39:14.381Z,7.27
2018-03-16T15:41:17.954Z,5.27
2018-03-16T15:43:21.501Z,7.07
2018-03-16T15:45:25.026Z,4.53
2018-03-16T15:47:28.575Z,5.73
2018-03-16T15:49:32.108Z,6.93
2018-03-16T15:51:36.437Z,7.03
2018-03-16T15:53:40.712Z,5.10
2018-03-16T15:55:44.215Z,5.47
2018-03-16T15:57:47.846Z,6.23
2018-03-16T15:59:52.252Z,4.63
2018-03-16T16:01:56.538Z,4.70
2018-03-16T16:04:00.141Z,8.53
2018-03-16T16:06:03.692Z,5.80
2018-03-16T16:08:07.297Z,5.30
2018-03-16T16:10:10.871Z,2.90
2018-03-16T16:12:14.435Z,3.40
2018-03-16T16:14:18.024Z,4.60
2018-03-16T16:16:21.561Z,6.13
2018-03-16T16:18:25.108Z,6.70
2018-03-16T16:20:28.711Z,4.83
2018-03-16T16:22:32.218Z,4.30
2018-03-16T16:24:35.805Z,5.27
2018-03-16T16:26:39.332Z,3.87
2018-03-16T16:28:43.594Z,3.80
2018-03-16T16:30:47.222Z,4.20
2018-03-16T16:32:50.729Z,5.63
2018-03-16T16:34:55.074Z,7.37
2018-03-16T16:36:58.630Z,5.47
2018-03-16T16:39:02.189Z,5.13
2018-03-16T16:41:06.743Z,5.17
2018-03-16T16:43:10.276Z,5.27
2018-03-16T16:45:13.794Z,4.97
2018-03-16T16:47:17.325Z,3.67
2018-03-16T16:49:20.849Z,5.40
2018-03-16T16:51:25.162Z,4.43
2018-03-16T16:53:29.642Z,6.33
2018-03-16T16:55:33.200Z,5.50
2018-03-16T16:57:36.750Z,6.83
2018-03-16T16:59:41.083Z,7.57
2018-03-16T17:01:45.424Z,3.53
2018-03-16T17:03:48.951Z,4.73
2018-03-16T17:05:52.600Z,8.37
2018-03-16T17:07:56.142Z,3.97
2018-03-16T17:09:59.677Z,5.03
2018-03-16T17:12:03.257Z,3.70
2018-03-16T17:14:06.825Z,3.40
2018-03-16T17:16:11.200Z,6.40
2018-03-16T17:18:14.699Z,4.00
2018-03-16T17:20:18.220Z,3.90
2018-03-16T17:22:21.803Z,5.30
2018-03-16T17:24:25.320Z,4.63
2018-03-16T17:26:28.823Z,3.90
2018-03-16T17:28:32.419Z,5.37
2018-03-16T17:30:35.944Z,8.00
2018-03-16T17:32:39.552Z,4.07
2018-03-16T17:34:43.880Z,4.27
2018-03-16T17:36:47.392Z,4.20
2018-03-16T17:38:50.960Z,4.90
2018-03-16T17:40:54.562Z,4.53
2018-03-16T17:42:58.144Z,4.93
2018-03-16T17:45:01.982Z,9.23
2018-03-16T17:47:05.476Z,5.27
2018-03-16T17:49:09.000Z,8.30
2018-03-16T17:51:12.603Z,4.20
2018-03-16T17:53:16.103Z,3.37
2018-03-16T17:55:19.611Z,3.47
2018-03-16T17:57:23.183Z,4.17
2018-03-16T17:59:26.732Z,4.80
2018-03-16T18:01:30.312Z,6.20
2018-03-16T18:03:34.563Z,4.80
2018-03-16T18:05:38.096Z,5.73
2018-03-16T18:07:41.636Z,5.20
2018-03-16T18:09:45.186Z,3.53
2018-03-16T18:11:48.698Z,5.27
2018-03-16T18:13:53.075Z,5.17
2018-03-16T18:15:56.597Z,10.80
2018-03-16T18:18:00.106Z,4.93
2018-03-16T18:20:03.723Z,6.33
2018-03-16T18:22:07.232Z,4.63
2018-03-16T18:24:10.717Z,5.93
2018-03-16T18:26:14.283Z,8.70
2018-03-16T18:28:18.579Z,5.40
2018-03-16T18:30:22.145Z,6.30
2018-03-16T18:32:25.792Z,6.20
2018-03-16T18:34:30.108Z,5.00
2018-03-16T18:36:34.449Z,4.53
2018-03-16T18:38:37.991Z,5.23
2018-03-16T18:40:41.517Z,3.07
2018-03-16T18:42:45.089Z,6.03
2018-03-16T18:44:48.640Z,6.57
2018-03-16T18:46:52.159Z,5.97
2018-03-16T18:48:55.897Z,4.40
2018-03-16T18:51:00.186Z,6.10
2018-03-16T18:53:03.740Z,5.00
2018-03-16T18:55:07.389Z,4.13
2018-03-16T18:57:10.936Z,5.87
2018-03-16T18:59:14.521Z,6.43
2018-03-16T19:01:18.091Z,6.27
2018-03-16T19:03:22.406Z,2.73
2018-03-16T19:05:26.737Z,5.93
2018-03-16T19:07:30.256Z,7.53
2018-03-16T19:09:33.838Z,4.47
2018-03-16T19:11:37.395Z,6.00
2018-03-16T19:13:40.955Z,3.17
2018-03-16T19:15:44.598Z,2.93
2018-03-16T19:17:48.936Z,5.57
2018-03-16T19:19:52.442Z,4.53
2018-03-16T19:21:56.133Z,3.03
2018-03-16T19:24:00.392Z,7.40
2018-03-16T19:26:03.938Z,3.40
2018-03-16T19:28:07.465Z,4.20
2018-03-16T19:30:11.028Z,5.70
2018-03-16T19:32:14.652Z,6.20
2018-03-16T19:34:18.184Z,3.33
2018-03-16T19:36:21.755Z,5.30
2018-03-16T19:38:25.244Z,4.03
2018-03-16T19:40:28.859Z,6.40
2018-03-16T19:42:32.353Z,4.67
2018-03-16T19:44:35.918Z,5.50
2018-03-16T19:46:39.482Z,4.97
2018-03-16T19:48:44.486Z,4.63
2018-03-16T19:50:48.204Z,4.87
2018-03-16T19:52:54.572Z,5.90
2018-03-16T19:54:58.088Z,3.73
2018-03-16T19:57:01.580Z,5.93
2018-03-16T19:59:05.186Z,4.23
2018-03-16T20:01:08.777Z,4.73
2018-03-16T20:03:12.327Z,5.13
2018-03-16T20:05:15.897Z,5.83
2018-03-16T20:07:19.424Z,6.97
2018-03-16T20:09:23.037Z,4.03
2018-03-16T20:11:26.642Z,4.17
2018-03-16T20:13:30.205Z,4.70
2018-03-16T20:15:33.777Z,5.17
2018-03-16T20:17:37.330Z,3.57
2018-03-16T20:19:41.577Z,9.47
2018-03-16T20:21:45.142Z,3.67
2018-03-16T20:23:48.744Z,3.70
2018-03-16T20:25:52.314Z,4.53
2018-03-16T20:27:56.661Z,4.17
2018-03-16T20:30:00.188Z,3.60
2018-03-16T20:32:03.846Z,5.87
2018-03-16T20:34:07.453Z,6.10
2018-03-16T20:36:11.932Z,4.60
2018-03-16T20:38:16.284Z,3.33
2018-03-16T20:40:19.835Z,5.17
2018-03-16T20:42:24.180Z,4.60
2018-03-16T20:44:27.715Z,2.53
2018-03-16T20:46:31.280Z,5.60
2018-03-16T20:48:34.834Z,2.47
2018-03-16T20:50:38.362Z,3.30
2018-03-16T20:52:42.659Z,6.13
2018-03-16T20:54:46.957Z,3.77
2018-03-16T20:56:51.238Z,4.07
2018-03-16T20:58:54.793Z,4.07
2018-03-16T21:00:58.388Z,3.87
2018-03-16T21:03:02.704Z,3.00
2018-03-16T21:05:06.271Z,5.20
2018-03-16T21:07:10.586Z,5.23
2018-03-16T21:09:14.116Z,5.30
2018-03-16T21:11:17.673Z,5.90
2018-03-16T21:13:21.149Z,7.70
2018-03-16T21:15:25.590Z,6.23
2018-03-16T21:17:29.915Z,3.10
2018-03-16T21:19:34.221Z,4.40
2018-03-16T21:21:37.802Z,3.00
2018-03-16T21:23:42.186Z,3.17
2018-03-16T21:25:45.722Z,3.40
2018-03-16T21:27:49.615Z,3.47
2018-03-16T21:29:53.151Z,9.67
2018-03-16T21:31:57.453Z,3.53
2018-03-16T21:34:01.751Z,2.97
2018-03-16T21:36:05.317Z,5.50
2018-03-16T21:38:08.922Z,6.17
2018-03-16T21:40:14.209Z,3.17
2018-03-16T21:42:17.767Z,4.70
2018-03-16T21:44:21.319Z,3.37
2018-03-16T21:46:24.796Z,5.40
2018-03-16T21:48:28.346Z,3.97
2018-03-16T21:50:31.919Z,6.07
2018-03-16T21:52:35.427Z,6.07
2018-03-16T21:54:39.324Z,5.20
2018-03-16T21:56:42.859Z,3.80
2018-03-16T21:58:46.472Z,2.03
2018-03-16T22:00:49.993Z,4.03
2018-03-16T22:02:53.542Z,4.93
2018-03-16T22:04:57.064Z,4.37
2018-03-16T22:07:00.606Z,6.30
2018-03-16T22:09:04.715Z,6.23
2018-03-16T22:11:09.091Z,5.10
2018-03-16T22:13:12.612Z,5.87
2018-03-16T22:15:16.157Z,6.60
2018-03-16T22:17:19.677Z,4.80
2018-03-16T22:19:23.228Z,4.63
2018-03-16T22:21:26.733Z,3.70
2018-03-16T22:23:31.066Z,5.57
2018-03-16T22:25:35.447Z,7.27
2018-03-16T22:27:39.061Z,3.10
2018-03-16T22:29:43.398Z,3.60
2018-03-16T22:31:46.936Z,3.83
2018-03-16T22:33:50.469Z,4.47
2018-03-16T22:35:54.815Z,3.23
2018-03-16T22:37:58.380Z,3.50
2018-03-16T22:40:01.990Z,3.63
2018-03-16T22:42:05.630Z,6.03
2018-03-16T22:44:09.187Z,3.20
2018-03-16T22:46:13.513Z,4.20
2018-03-16T22:48:17.064Z,5.10
2018-03-16T22:50:21.381Z,7.70
2018-03-16T22:52:25.729Z,1.90
2018-03-16T22:54:29.319Z,4.37
2018-03-16T22:56:32.922Z,3.10
2018-03-16T22:58:36.418Z,2.53
2018-03-16T23:00:40.044Z,3.07
2018-03-16T23:02:44.432Z,3.57
2018-03-16T23:04:48.004Z,4.50
2018-03-16T23:06:52.345Z,4.23
2018-03-16T23:08:55.857Z,3.17
2018-03-16T23:10:59.376Z,3.97
2018-03-16T23:13:02.981Z,3.70
2018-03-16T23:15:06.568Z,6.00
2018-03-16T23:17:10.154Z,2.90
2018-03-16T23:19:13.711Z,3.60
2018-03-16T23:21:17.222Z,3.17
2018-03-16T23:23:20.797Z,5.07
2018-03-16T23:25:25.200Z,4.33
2018-03-16T23:27:28.775Z,3.93
2018-03-16T23:29:32.285Z,4.10
2018-03-16T23:31:35.989Z,7.33
2018-03-16T23:33:39.587Z,6.30
2018-03-16T23:35:43.875Z,5.90
2018-03-16T23:37:47.406Z,6.53
2018-03-16T23:39:51.036Z,6.23
2018-03-16T23:41:54.535Z,3.93
2018-03-16T23:43:58.070Z,5.00
2018-03-16T23:46:02.425Z,3.30
2018-03-16T23:48:05.995Z,4.90
2018-03-16T23:50:09.651Z,7.20
2018-03-16T23:52:13.202Z,5.63
2018-03-16T23:54:16.751Z,3.33
2018-03-16T23:56:21.138Z,4.67
2018-03-16T23:58:24.693Z,7.93
